sensor_id;sensor_type;location;lat;lon;timestamp;temperature;humidity
21275;DHT22;36472;52.170;20.884;2023-05-08T00:00:04;25.50;38.70
21275;DHT22;36472;52.170;20.884;2023-05-08T00:02:54;25.50;38.00
21275;DHT22;36472;52.170;20.884;2023-05-08T00:05:24;25.50;38.00
21275;DHT22;36472;52.170;20.884;2023-05-08T00:07:53;25.50;37.90
21275;DHT22;36472;52.170;20.884;2023-05-08T00:10:28;25.40;37.70
21275;DHT22;36472;52.170;20.884;2023-05-08T00:12:57;25.40;37.90
21275;DHT22;36472;52.170;20.884;2023-05-08T00:15:26;25.40;38.10
21275;DHT22;36472;52.170;20.884;2023-05-08T00:17:54;25.40;38.10
21275;DHT22;36472;52.170;20.884;2023-05-08T00:20:25;25.40;37.80
21275;DHT22;36472;52.170;20.884;2023-05-08T00:22:54;25.40;37.70
21275;DHT22;36472;52.170;20.884;2023-05-08T00:25:24;25.30;37.70
21275;DHT22;36472;52.170;20.884;2023-05-08T00:27:54;25.30;37.50
21275;DHT22;36472;52.170;20.884;2023-05-08T00:30:23;25.30;37.80
21275;DHT22;36472;52.170;20.884;2023-05-08T00:32:53;25.30;37.70
21275;DHT22;36472;52.170;20.884;2023-05-08T00:35:22;25.30;37.90
21275;DHT22;36472;52.170;20.884;2023-05-08T00:37:52;25.30;37.90
21275;DHT22;36472;52.170;20.884;2023-05-08T00:40:21;25.30;37.90
21275;DHT22;36472;52.170;20.884;2023-05-08T00:42:50;25.20;37.40
21275;DHT22;36472;52.170;20.884;2023-05-08T00:45:19;25.20;37.40
21275;DHT22;36472;52.170;20.884;2023-05-08T00:47:49;25.20;37.30
21275;DHT22;36472;52.170;20.884;2023-05-08T00:50:19;25.20;37.50
21275;DHT22;36472;52.170;20.884;2023-05-08T00:52:48;25.20;37.90
21275;DHT22;36472;52.170;20.884;2023-05-08T00:55:20;25.20;37.80
21275;DHT22;36472;52.170;20.884;2023-05-08T00:57:49;25.20;38.00
21275;DHT22;36472;52.170;20.884;2023-05-08T01:00:20;25.20;37.70
21275;DHT22;36472;52.170;20.884;2023-05-08T01:02:49;25.20;37.60
21275;DHT22;36472;52.170;20.884;2023-05-08T01:05:19;25.10;37.90
21275;DHT22;36472;52.170;20.884;2023-05-08T01:07:47;25.10;37.70
21275;DHT22;36472;52.170;20.884;2023-05-08T01:10:18;25.10;37.80
21275;DHT22;36472;52.170;20.884;2023-05-08T01:12:55;25.10;37.80
21275;DHT22;36472;52.170;20.884;2023-05-08T01:15:43;25.10;37.70
21275;DHT22;36472;52.170;20.884;2023-05-08T01:18:18;25.10;37.80
21275;DHT22;36472;52.170;20.884;2023-05-08T01:20:59;25.10;38.10
21275;DHT22;36472;52.170;20.884;2023-05-08T01:27:29;25.00;37.90
21275;DHT22;36472;52.170;20.884;2023-05-08T01:30:34;25.00;37.30
21275;DHT22;36472;52.170;20.884;2023-05-08T01:33:22;25.00;37.50
21275;DHT22;36472;52.170;20.884;2023-05-08T01:35:59;25.00;37.70
21275;DHT22;36472;52.170;20.884;2023-05-08T01:38:41;25.00;37.80
21275;DHT22;36472;52.170;20.884;2023-05-08T01:41:25;25.00;37.90
21275;DHT22;36472;52.170;20.884;2023-05-08T01:44:07;25.00;37.80
21275;DHT22;36472;52.170;20.884;2023-05-08T01:46:41;25.00;37.80
21275;DHT22;36472;52.170;20.884;2023-05-08T01:49:22;24.90;37.40
21275;DHT22;36472;52.170;20.884;2023-05-08T01:51:58;24.90;37.30
21275;DHT22;36472;52.170;20.884;2023-05-08T01:54:35;24.90;37.90
21275;DHT22;36472;52.170;20.884;2023-05-08T01:57:11;24.90;38.00
21275;DHT22;36472;52.170;20.884;2023-05-08T01:59:43;24.90;37.80
21275;DHT22;36472;52.170;20.884;2023-05-08T02:02:14;24.90;37.70
21275;DHT22;36472;52.170;20.884;2023-05-08T02:04:48;24.90;37.50
21275;DHT22;36472;52.170;20.884;2023-05-08T02:07:21;24.90;37.50
21275;DHT22;36472;52.170;20.884;2023-05-08T02:09:53;24.90;37.80
21275;DHT22;36472;52.170;20.884;2023-05-08T02:12:25;24.90;37.70
21275;DHT22;36472;52.170;20.884;2023-05-08T02:14:56;24.90;37.90
21275;DHT22;36472;52.170;20.884;2023-05-08T02:17:47;24.90;38.00
21275;DHT22;36472;52.170;20.884;2023-05-08T02:20:20;24.90;37.90
21275;DHT22;36472;52.170;20.884;2023-05-08T02:22:50;24.90;37.90
21275;DHT22;36472;52.170;20.884;2023-05-08T02:25:19;24.90;37.90
21275;DHT22;36472;52.170;20.884;2023-05-08T02:27:52;24.80;37.30
21275;DHT22;36472;52.170;20.884;2023-05-08T02:30:24;24.80;37.30
21275;DHT22;36472;52.170;20.884;2023-05-08T02:32:54;24.80;37.30
21275;DHT22;36472;52.170;20.884;2023-05-08T02:35:30;24.80;37.20
21275;DHT22;36472;52.170;20.884;2023-05-08T02:37:59;24.80;37.10
21275;DHT22;36472;52.170;20.884;2023-05-08T02:40:30;24.80;36.90
21275;DHT22;36472;52.170;20.884;2023-05-08T02:43:00;24.80;36.90
21275;DHT22;36472;52.170;20.884;2023-05-08T02:45:38;24.80;37.10
21275;DHT22;36472;52.170;20.884;2023-05-08T02:48:13;24.80;36.90
21275;DHT22;36472;52.170;20.884;2023-05-08T02:50:55;24.70;36.70
21275;DHT22;36472;52.170;20.884;2023-05-08T02:53:33;24.70;36.80
21275;DHT22;36472;52.170;20.884;2023-05-08T02:56:09;24.70;36.90
21275;DHT22;36472;52.170;20.884;2023-05-08T02:58:51;24.70;37.00
21275;DHT22;36472;52.170;20.884;2023-05-08T03:01:30;24.70;36.90
21275;DHT22;36472;52.170;20.884;2023-05-08T03:04:07;24.70;36.80
21275;DHT22;36472;52.170;20.884;2023-05-08T03:06:43;24.70;37.00
21275;DHT22;36472;52.170;20.884;2023-05-08T03:09:17;24.60;37.00
21275;DHT22;36472;52.170;20.884;2023-05-08T03:11:49;24.60;36.80
21275;DHT22;36472;52.170;20.884;2023-05-08T03:14:27;24.60;37.60
21275;DHT22;36472;52.170;20.884;2023-05-08T03:17:02;24.60;37.50
21275;DHT22;36472;52.170;20.884;2023-05-08T03:19:36;24.60;37.40
21275;DHT22;36472;52.170;20.884;2023-05-08T03:22:09;24.60;37.50
21275;DHT22;36472;52.170;20.884;2023-05-08T03:24:39;24.60;37.70
21275;DHT22;36472;52.170;20.884;2023-05-08T03:27:12;24.60;37.80
21275;DHT22;36472;52.170;20.884;2023-05-08T03:29:44;24.60;37.50
21275;DHT22;36472;52.170;20.884;2023-05-08T03:32:14;24.60;37.50
21275;DHT22;36472;52.170;20.884;2023-05-08T03:34:45;24.60;37.60
21275;DHT22;36472;52.170;20.884;2023-05-08T03:37:18;24.60;37.50
21275;DHT22;36472;52.170;20.884;2023-05-08T03:39:47;24.60;37.80
21275;DHT22;36472;52.170;20.884;2023-05-08T03:42:16;24.60;37.90
21275;DHT22;36472;52.170;20.884;2023-05-08T03:44:50;24.60;37.70
21275;DHT22;36472;52.170;20.884;2023-05-08T03:47:20;24.70;38.00
21275;DHT22;36472;52.170;20.884;2023-05-08T03:49:50;24.70;37.60
21275;DHT22;36472;52.170;20.884;2023-05-08T03:52:22;24.70;37.60
21275;DHT22;36472;52.170;20.884;2023-05-08T03:54:52;24.70;37.90
21275;DHT22;36472;52.170;20.884;2023-05-08T03:57:23;24.70;38.20
21275;DHT22;36472;52.170;20.884;2023-05-08T04:00:02;24.70;38.10
21275;DHT22;36472;52.170;20.884;2023-05-08T04:02:49;24.80;38.00
21275;DHT22;36472;52.170;20.884;2023-05-08T04:05:39;24.80;38.30
21275;DHT22;36472;52.170;20.884;2023-05-08T04:08:20;24.90;38.20
21275;DHT22;36472;52.170;20.884;2023-05-08T04:10:59;24.90;38.60
21275;DHT22;36472;52.170;20.884;2023-05-08T04:13:38;24.90;38.40
21275;DHT22;36472;52.170;20.884;2023-05-08T04:16:16;25.00;38.80
21275;DHT22;36472;52.170;20.884;2023-05-08T04:18:57;25.00;38.70
21275;DHT22;36472;52.170;20.884;2023-05-08T04:21:33;25.10;38.80
21275;DHT22;36472;52.170;20.884;2023-05-08T04:24:06;25.10;38.90
21275;DHT22;36472;52.170;20.884;2023-05-08T04:26:41;25.20;39.00
21275;DHT22;36472;52.170;20.884;2023-05-08T04:29:10;25.30;39.10
21275;DHT22;36472;52.170;20.884;2023-05-08T04:31:41;25.40;39.50
21275;DHT22;36472;52.170;20.884;2023-05-08T04:34:11;25.40;39.50
21275;DHT22;36472;52.170;20.884;2023-05-08T04:36:41;25.50;39.60
21275;DHT22;36472;52.170;20.884;2023-05-08T04:39:11;25.60;39.80
21275;DHT22;36472;52.170;20.884;2023-05-08T04:41:41;25.70;39.80
21275;DHT22;36472;52.170;20.884;2023-05-08T04:44:11;25.80;40.00
21275;DHT22;36472;52.170;20.884;2023-05-08T04:46:40;25.80;39.60
21275;DHT22;36472;52.170;20.884;2023-05-08T04:49:10;25.90;39.60
21275;DHT22;36472;52.170;20.884;2023-05-08T04:51:38;26.00;39.70
21275;DHT22;36472;52.170;20.884;2023-05-08T04:54:07;26.00;39.30
21275;DHT22;36472;52.170;20.884;2023-05-08T04:56:37;26.10;39.60
21275;DHT22;36472;52.170;20.884;2023-05-08T04:59:06;26.20;39.50
21275;DHT22;36472;52.170;20.884;2023-05-08T05:01:35;26.30;39.40
21275;DHT22;36472;52.170;20.884;2023-05-08T05:04:04;26.40;39.20
21275;DHT22;36472;52.170;20.884;2023-05-08T05:06:33;26.50;38.70
21275;DHT22;36472;52.170;20.884;2023-05-08T05:09:02;26.50;38.20
21275;DHT22;36472;52.170;20.884;2023-05-08T05:11:31;26.60;38.20
21275;DHT22;36472;52.170;20.884;2023-05-08T05:14:02;26.70;38.60
21275;DHT22;36472;52.170;20.884;2023-05-08T05:16:31;26.80;38.70
21275;DHT22;36472;52.170;20.884;2023-05-08T05:19:00;26.80;37.70
21275;DHT22;36472;52.170;20.884;2023-05-08T05:21:29;26.90;37.40
21275;DHT22;36472;52.170;20.884;2023-05-08T05:23:58;27.00;37.00
21275;DHT22;36472;52.170;20.884;2023-05-08T05:26:26;27.10;37.20
21275;DHT22;36472;52.170;20.884;2023-05-08T05:28:56;27.20;37.20
21275;DHT22;36472;52.170;20.884;2023-05-08T05:31:27;27.20;37.30
21275;DHT22;36472;52.170;20.884;2023-05-08T05:33:57;27.30;36.60
21275;DHT22;36472;52.170;20.884;2023-05-08T05:36:26;27.30;35.90
21275;DHT22;36472;52.170;20.884;2023-05-08T05:38:56;27.40;36.00
21275;DHT22;36472;52.170;20.884;2023-05-08T05:41:25;27.50;35.40
21275;DHT22;36472;52.170;20.884;2023-05-08T05:43:54;27.60;35.90
21275;DHT22;36472;52.170;20.884;2023-05-08T05:46:23;27.80;35.90
21275;DHT22;36472;52.170;20.884;2023-05-08T05:49:02;28.00;35.50
21275;DHT22;36472;52.170;20.884;2023-05-08T05:51:32;28.30;35.70
21275;DHT22;36472;52.170;20.884;2023-05-08T05:54:01;28.50;35.30
21275;DHT22;36472;52.170;20.884;2023-05-08T05:56:31;28.60;34.80
21275;DHT22;36472;52.170;20.884;2023-05-08T05:59:00;28.80;35.30
21275;DHT22;36472;52.170;20.884;2023-05-08T06:01:29;28.90;34.90
21275;DHT22;36472;52.170;20.884;2023-05-08T06:03:58;29.00;32.90
21275;DHT22;36472;52.170;20.884;2023-05-08T06:06:28;29.10;33.20
21275;DHT22;36472;52.170;20.884;2023-05-08T06:08:58;29.20;33.00
21275;DHT22;36472;52.170;20.884;2023-05-08T06:11:27;29.30;32.40
21275;DHT22;36472;52.170;20.884;2023-05-08T06:13:56;29.50;32.90
21275;DHT22;36472;52.170;20.884;2023-05-08T06:16:25;29.60;33.50
21275;DHT22;36472;52.170;20.884;2023-05-08T06:18:54;29.70;32.40
21275;DHT22;36472;52.170;20.884;2023-05-08T06:21:24;29.80;32.20
21275;DHT22;36472;52.170;20.884;2023-05-08T06:23:56;29.80;31.70
21275;DHT22;36472;52.170;20.884;2023-05-08T06:26:25;29.90;32.60
21275;DHT22;36472;52.170;20.884;2023-05-08T06:28:54;29.90;31.50
21275;DHT22;36472;52.170;20.884;2023-05-08T06:31:22;30.00;31.30
21275;DHT22;36472;52.170;20.884;2023-05-08T06:33:52;30.00;31.90
21275;DHT22;36472;52.170;20.884;2023-05-08T06:36:20;30.00;31.10
21275;DHT22;36472;52.170;20.884;2023-05-08T06:38:50;30.00;31.10
21275;DHT22;36472;52.170;20.884;2023-05-08T06:41:20;30.00;31.40
21275;DHT22;36472;52.170;20.884;2023-05-08T06:43:49;30.00;31.60
21275;DHT22;36472;52.170;20.884;2023-05-08T06:46:18;30.10;31.50
21275;DHT22;36472;52.170;20.884;2023-05-08T06:48:48;30.10;31.10
21275;DHT22;36472;52.170;20.884;2023-05-08T06:51:17;30.20;30.50
21275;DHT22;36472;52.170;20.884;2023-05-08T06:53:49;30.10;30.40
21275;DHT22;36472;52.170;20.884;2023-05-08T06:56:18;30.10;30.10
21275;DHT22;36472;52.170;20.884;2023-05-08T06:58:49;30.20;30.10
21275;DHT22;36472;52.170;20.884;2023-05-08T07:01:34;30.20;30.80
21275;DHT22;36472;52.170;20.884;2023-05-08T07:04:04;30.30;30.30
21275;DHT22;36472;52.170;20.884;2023-05-08T07:06:33;30.20;30.10
21275;DHT22;36472;52.170;20.884;2023-05-08T07:09:02;30.20;30.40
21275;DHT22;36472;52.170;20.884;2023-05-08T07:11:30;30.20;30.00
21275;DHT22;36472;52.170;20.884;2023-05-08T07:14:01;30.30;30.30
21275;DHT22;36472;52.170;20.884;2023-05-08T07:16:30;30.30;30.80
21275;DHT22;36472;52.170;20.884;2023-05-08T07:18:59;30.20;30.70
21275;DHT22;36472;52.170;20.884;2023-05-08T07:21:28;30.30;30.30
21275;DHT22;36472;52.170;20.884;2023-05-08T07:23:57;30.30;30.40
21275;DHT22;36472;52.170;20.884;2023-05-08T07:26:25;30.30;30.20
21275;DHT22;36472;52.170;20.884;2023-05-08T07:28:54;30.30;30.20
21275;DHT22;36472;52.170;20.884;2023-05-08T07:31:25;30.40;30.50
21275;DHT22;36472;52.170;20.884;2023-05-08T07:33:54;30.40;30.50
21275;DHT22;36472;52.170;20.884;2023-05-08T07:36:22;30.50;30.30
21275;DHT22;36472;52.170;20.884;2023-05-08T07:38:51;30.60;30.50
21275;DHT22;36472;52.170;20.884;2023-05-08T07:41:20;30.60;30.40
21275;DHT22;36472;52.170;20.884;2023-05-08T07:43:49;30.60;29.90
21275;DHT22;36472;52.170;20.884;2023-05-08T07:46:18;30.60;29.80
21275;DHT22;36472;52.170;20.884;2023-05-08T07:48:49;30.60;29.70
21275;DHT22;36472;52.170;20.884;2023-05-08T07:51:18;30.50;29.80
21275;DHT22;36472;52.170;20.884;2023-05-08T07:53:47;30.60;29.70
21275;DHT22;36472;52.170;20.884;2023-05-08T07:56:17;30.50;30.50
21275;DHT22;36472;52.170;20.884;2023-05-08T07:58:46;30.60;30.90
21275;DHT22;36472;52.170;20.884;2023-05-08T08:01:15;30.70;30.60
21275;DHT22;36472;52.170;20.884;2023-05-08T08:03:45;30.50;29.50
21275;DHT22;36472;52.170;20.884;2023-05-08T08:06:15;30.60;29.80
21275;DHT22;36472;52.170;20.884;2023-05-08T08:08:45;30.50;29.50
21275;DHT22;36472;52.170;20.884;2023-05-08T08:11:13;30.60;30.00
21275;DHT22;36472;52.170;20.884;2023-05-08T08:13:42;30.60;30.50
21275;DHT22;36472;52.170;20.884;2023-05-08T08:16:11;30.70;30.30
21275;DHT22;36472;52.170;20.884;2023-05-08T08:18:40;30.80;29.20
21275;DHT22;36472;52.170;20.884;2023-05-08T08:21:09;30.90;29.80
21275;DHT22;36472;52.170;20.884;2023-05-08T08:23:39;30.90;29.70
21275;DHT22;36472;52.170;20.884;2023-05-08T08:26:08;31.00;30.30
21275;DHT22;36472;52.170;20.884;2023-05-08T08:28:37;31.00;29.60
21275;DHT22;36472;52.170;20.884;2023-05-08T08:31:05;31.10;29.70
21275;DHT22;36472;52.170;20.884;2023-05-08T08:33:35;31.10;30.20
21275;DHT22;36472;52.170;20.884;2023-05-08T08:36:04;31.20;29.20
21275;DHT22;36472;52.170;20.884;2023-05-08T08:38:41;31.20;29.60
21275;DHT22;36472;52.170;20.884;2023-05-08T08:41:12;31.30;30.00
21275;DHT22;36472;52.170;20.884;2023-05-08T08:43:42;31.40;29.90
21275;DHT22;36472;52.170;20.884;2023-05-08T08:46:13;31.50;30.00
21275;DHT22;36472;52.170;20.884;2023-05-08T08:48:44;31.60;29.50
21275;DHT22;36472;52.170;20.884;2023-05-08T08:51:21;31.60;29.10
21275;DHT22;36472;52.170;20.884;2023-05-08T08:54:08;31.70;29.20
21275;DHT22;36472;52.170;20.884;2023-05-08T08:56:39;31.40;30.00
21275;DHT22;36472;52.170;20.884;2023-05-08T08:59:10;31.60;30.10
21275;DHT22;36472;52.170;20.884;2023-05-08T09:01:43;31.40;29.00
21275;DHT22;36472;52.170;20.884;2023-05-08T09:04:15;31.50;29.40
21275;DHT22;36472;52.170;20.884;2023-05-08T09:06:45;31.60;29.10
21275;DHT22;36472;52.170;20.884;2023-05-08T09:09:15;31.70;28.80
21275;DHT22;36472;52.170;20.884;2023-05-08T09:11:45;31.80;29.40
21275;DHT22;36472;52.170;20.884;2023-05-08T09:14:14;31.90;29.10
21275;DHT22;36472;52.170;20.884;2023-05-08T09:16:43;32.00;27.80
21275;DHT22;36472;52.170;20.884;2023-05-08T09:19:13;32.00;28.20
21275;DHT22;36472;52.170;20.884;2023-05-08T09:21:42;31.90;27.60
21275;DHT22;36472;52.170;20.884;2023-05-08T09:24:12;31.80;28.10
21275;DHT22;36472;52.170;20.884;2023-05-08T09:26:43;32.00;28.10
21275;DHT22;36472;52.170;20.884;2023-05-08T09:29:13;32.00;27.90
21275;DHT22;36472;52.170;20.884;2023-05-08T09:31:44;32.00;27.50
21275;DHT22;36472;52.170;20.884;2023-05-08T09:34:22;32.10;28.50
21275;DHT22;36472;52.170;20.884;2023-05-08T09:36:54;32.10;27.70
21275;DHT22;36472;52.170;20.884;2023-05-08T09:39:25;32.20;28.50
21275;DHT22;36472;52.170;20.884;2023-05-08T09:41:59;32.20;27.50
21275;DHT22;36472;52.170;20.884;2023-05-08T09:44:42;32.20;27.70
21275;DHT22;36472;52.170;20.884;2023-05-08T09:47:13;32.10;27.20
21275;DHT22;36472;52.170;20.884;2023-05-08T09:49:56;32.10;27.70
21275;DHT22;36472;52.170;20.884;2023-05-08T09:52:25;32.10;28.40
21275;DHT22;36472;52.170;20.884;2023-05-08T09:54:58;32.20;28.00
21275;DHT22;36472;52.170;20.884;2023-05-08T09:57:31;32.30;27.70
21275;DHT22;36472;52.170;20.884;2023-05-08T10:00:05;32.40;26.90
21275;DHT22;36472;52.170;20.884;2023-05-08T10:02:38;32.50;26.30
21275;DHT22;36472;52.170;20.884;2023-05-08T10:05:22;32.50;26.60
21275;DHT22;36472;52.170;20.884;2023-05-08T10:07:52;32.50;27.30
21275;DHT22;36472;52.170;20.884;2023-05-08T10:10:22;32.60;27.00
21275;DHT22;36472;52.170;20.884;2023-05-08T10:12:56;32.60;26.70
21275;DHT22;36472;52.170;20.884;2023-05-08T10:15:28;32.60;26.20
21275;DHT22;36472;52.170;20.884;2023-05-08T10:18:02;32.60;27.30
21275;DHT22;36472;52.170;20.884;2023-05-08T10:20:34;32.60;27.10
21275;DHT22;36472;52.170;20.884;2023-05-08T10:23:07;32.60;26.20
21275;DHT22;36472;52.170;20.884;2023-05-08T10:25:44;32.60;26.20
21275;DHT22;36472;52.170;20.884;2023-05-08T10:28:23;32.70;26.10
21275;DHT22;36472;52.170;20.884;2023-05-08T10:30:59;32.80;26.30
21275;DHT22;36472;52.170;20.884;2023-05-08T10:33:33;32.80;25.90
21275;DHT22;36472;52.170;20.884;2023-05-08T10:36:03;32.80;26.50
21275;DHT22;36472;52.170;20.884;2023-05-08T10:38:34;32.80;26.20
21275;DHT22;36472;52.170;20.884;2023-05-08T10:41:04;32.80;26.40
21275;DHT22;36472;52.170;20.884;2023-05-08T10:43:35;32.70;25.80
21275;DHT22;36472;52.170;20.884;2023-05-08T10:46:15;32.70;26.40
21275;DHT22;36472;52.170;20.884;2023-05-08T10:48:55;32.70;26.70
21275;DHT22;36472;52.170;20.884;2023-05-08T10:51:37;32.70;27.10
21275;DHT22;36472;52.170;20.884;2023-05-08T10:54:17;32.80;26.60
21275;DHT22;36472;52.170;20.884;2023-05-08T10:56:51;33.00;26.00
21275;DHT22;36472;52.170;20.884;2023-05-08T10:59:21;33.00;26.00
21275;DHT22;36472;52.170;20.884;2023-05-08T11:01:50;33.10;26.10
21275;DHT22;36472;52.170;20.884;2023-05-08T11:04:20;33.00;26.10
21275;DHT22;36472;52.170;20.884;2023-05-08T11:06:50;33.00;25.90
21275;DHT22;36472;52.170;20.884;2023-05-08T11:09:21;33.10;26.80
21275;DHT22;36472;52.170;20.884;2023-05-08T11:12:01;33.00;25.50
21275;DHT22;36472;52.170;20.884;2023-05-08T11:14:38;33.00;25.60
21275;DHT22;36472;52.170;20.884;2023-05-08T11:17:10;33.10;25.40
21275;DHT22;36472;52.170;20.884;2023-05-08T11:19:54;33.20;25.90
21275;DHT22;36472;52.170;20.884;2023-05-08T11:22:26;33.40;25.10
21275;DHT22;36472;52.170;20.884;2023-05-08T11:25:04;33.50;25.20
21275;DHT22;36472;52.170;20.884;2023-05-08T11:27:40;33.60;24.50
21275;DHT22;36472;52.170;20.884;2023-05-08T11:30:52;33.50;24.60
21275;DHT22;36472;52.170;20.884;2023-05-08T11:33:28;33.60;24.90
21275;DHT22;36472;52.170;20.884;2023-05-08T11:35:59;33.80;24.50
21275;DHT22;36472;52.170;20.884;2023-05-08T11:38:39;33.90;24.50
21275;DHT22;36472;52.170;20.884;2023-05-08T11:41:10;34.10;25.10
21275;DHT22;36472;52.170;20.884;2023-05-08T11:44:12;34.30;24.80
21275;DHT22;36472;52.170;20.884;2023-05-08T11:46:50;34.20;24.50
21275;DHT22;36472;52.170;20.884;2023-05-08T11:49:21;34.20;24.60
21275;DHT22;36472;52.170;20.884;2023-05-08T11:51:57;34.30;24.30
21275;DHT22;36472;52.170;20.884;2023-05-08T11:54:29;34.30;24.20
21275;DHT22;36472;52.170;20.884;2023-05-08T11:56:58;34.30;24.50
21275;DHT22;36472;52.170;20.884;2023-05-08T11:59:28;34.40;24.30
21275;DHT22;36472;52.170;20.884;2023-05-08T12:02:04;34.50;24.30
21275;DHT22;36472;52.170;20.884;2023-05-08T12:04:43;34.30;23.90
21275;DHT22;36472;52.170;20.884;2023-05-08T12:07:13;33.90;24.40
21275;DHT22;36472;52.170;20.884;2023-05-08T12:09:42;34.00;24.30
21275;DHT22;36472;52.170;20.884;2023-05-08T12:12:13;33.80;24.60
21275;DHT22;36472;52.170;20.884;2023-05-08T12:14:42;33.80;24.30
21275;DHT22;36472;52.170;20.884;2023-05-08T12:17:15;33.60;24.50
21275;DHT22;36472;52.170;20.884;2023-05-08T12:19:45;33.40;25.00
21275;DHT22;36472;52.170;20.884;2023-05-08T12:22:14;33.40;24.90
21275;DHT22;36472;52.170;20.884;2023-05-08T12:24:43;33.40;26.10
21275;DHT22;36472;52.170;20.884;2023-05-08T12:27:12;33.40;26.30
21275;DHT22;36472;52.170;20.884;2023-05-08T12:29:43;33.30;24.90
21275;DHT22;36472;52.170;20.884;2023-05-08T12:32:14;33.40;25.60
21275;DHT22;36472;52.170;20.884;2023-05-08T12:34:43;33.40;26.20
21275;DHT22;36472;52.170;20.884;2023-05-08T12:37:22;33.40;25.70
21275;DHT22;36472;52.170;20.884;2023-05-08T12:39:52;33.40;25.60
21275;DHT22;36472;52.170;20.884;2023-05-08T12:42:21;33.20;24.70
21275;DHT22;36472;52.170;20.884;2023-05-08T12:44:51;33.20;24.90
21275;DHT22;36472;52.170;20.884;2023-05-08T12:47:21;33.00;24.90
21275;DHT22;36472;52.170;20.884;2023-05-08T12:49:56;32.80;25.00
21275;DHT22;36472;52.170;20.884;2023-05-08T12:52:27;32.80;25.10
21275;DHT22;36472;52.170;20.884;2023-05-08T12:54:56;32.90;25.90
21275;DHT22;36472;52.170;20.884;2023-05-08T12:57:25;32.90;25.00
21275;DHT22;36472;52.170;20.884;2023-05-08T13:00:02;32.90;25.20
21275;DHT22;36472;52.170;20.884;2023-05-08T13:02:33;32.90;25.20
21275;DHT22;36472;52.170;20.884;2023-05-08T13:05:18;32.30;24.70
21275;DHT22;36472;52.170;20.884;2023-05-08T13:07:48;32.30;25.50
21275;DHT22;36472;52.170;20.884;2023-05-08T13:10:18;32.40;25.10
21275;DHT22;36472;52.170;20.884;2023-05-08T13:12:50;32.50;25.30
21275;DHT22;36472;52.170;20.884;2023-05-08T13:15:19;32.60;25.30
21275;DHT22;36472;52.170;20.884;2023-05-08T13:17:51;32.60;25.90
21275;DHT22;36472;52.170;20.884;2023-05-08T13:20:20;32.70;25.80
21275;DHT22;36472;52.170;20.884;2023-05-08T13:22:49;32.70;26.30
21275;DHT22;36472;52.170;20.884;2023-05-08T13:25:18;32.80;25.70
21275;DHT22;36472;52.170;20.884;2023-05-08T13:27:47;32.80;24.80
21275;DHT22;36472;52.170;20.884;2023-05-08T13:30:16;32.90;25.70
21275;DHT22;36472;52.170;20.884;2023-05-08T13:32:45;32.90;25.30
21275;DHT22;36472;52.170;20.884;2023-05-08T13:35:15;32.80;25.50
21275;DHT22;36472;52.170;20.884;2023-05-08T13:37:45;32.90;25.20
21275;DHT22;36472;52.170;20.884;2023-05-08T13:40:15;32.90;25.40
21275;DHT22;36472;52.170;20.884;2023-05-08T13:42:45;33.00;25.20
21275;DHT22;36472;52.170;20.884;2023-05-08T13:45:14;33.00;25.60
21275;DHT22;36472;52.170;20.884;2023-05-08T13:47:45;32.90;25.20
21275;DHT22;36472;52.170;20.884;2023-05-08T13:50:17;33.00;25.00
21275;DHT22;36472;52.170;20.884;2023-05-08T13:52:48;33.00;24.90
21275;DHT22;36472;52.170;20.884;2023-05-08T13:55:21;32.90;24.70
21275;DHT22;36472;52.170;20.884;2023-05-08T13:57:50;32.80;24.60
21275;DHT22;36472;52.170;20.884;2023-05-08T14:00:19;32.70;25.10
21275;DHT22;36472;52.170;20.884;2023-05-08T14:02:48;32.80;24.20
21275;DHT22;36472;52.170;20.884;2023-05-08T14:05:21;32.60;24.80
21275;DHT22;36472;52.170;20.884;2023-05-08T14:07:49;32.60;25.20
21275;DHT22;36472;52.170;20.884;2023-05-08T14:10:19;32.60;25.20
21275;DHT22;36472;52.170;20.884;2023-05-08T14:12:47;32.60;25.40
21275;DHT22;36472;52.170;20.884;2023-05-08T14:15:17;32.70;24.90
21275;DHT22;36472;52.170;20.884;2023-05-08T14:17:46;32.80;25.40
21275;DHT22;36472;52.170;20.884;2023-05-08T14:20:15;32.80;25.30
21275;DHT22;36472;52.170;20.884;2023-05-08T14:22:45;32.90;24.40
21275;DHT22;36472;52.170;20.884;2023-05-08T14:25:14;32.90;24.80
21275;DHT22;36472;52.170;20.884;2023-05-08T14:27:43;32.90;24.70
21275;DHT22;36472;52.170;20.884;2023-05-08T14:30:12;32.70;24.50
21275;DHT22;36472;52.170;20.884;2023-05-08T14:32:42;32.80;25.00
21275;DHT22;36472;52.170;20.884;2023-05-08T14:35:11;32.90;24.90
21275;DHT22;36472;52.170;20.884;2023-05-08T14:37:40;33.00;24.50
21275;DHT22;36472;52.170;20.884;2023-05-08T14:40:11;33.10;25.40
21275;DHT22;36472;52.170;20.884;2023-05-08T14:42:40;33.10;24.80
21275;DHT22;36472;52.170;20.884;2023-05-08T14:45:09;33.20;25.30
21275;DHT22;36472;52.170;20.884;2023-05-08T14:47:39;33.20;25.70
21275;DHT22;36472;52.170;20.884;2023-05-08T14:50:09;33.20;24.70
21275;DHT22;36472;52.170;20.884;2023-05-08T14:52:38;33.30;24.90
21275;DHT22;36472;52.170;20.884;2023-05-08T14:55:08;33.30;25.00
21275;DHT22;36472;52.170;20.884;2023-05-08T14:57:39;33.30;24.80
21275;DHT22;36472;52.170;20.884;2023-05-08T15:00:09;33.20;24.80
21275;DHT22;36472;52.170;20.884;2023-05-08T15:02:39;33.30;24.70
21275;DHT22;36472;52.170;20.884;2023-05-08T15:05:09;33.20;24.80
21275;DHT22;36472;52.170;20.884;2023-05-08T15:07:45;33.20;24.30
21275;DHT22;36472;52.170;20.884;2023-05-08T15:10:16;33.20;24.50
21275;DHT22;36472;52.170;20.884;2023-05-08T15:12:46;33.00;25.10
21275;DHT22;36472;52.170;20.884;2023-05-08T15:15:15;32.90;24.70
21275;DHT22;36472;52.170;20.884;2023-05-08T15:17:44;32.90;25.00
21275;DHT22;36472;52.170;20.884;2023-05-08T15:20:13;33.00;25.40
21275;DHT22;36472;52.170;20.884;2023-05-08T15:22:42;33.00;25.40
21275;DHT22;36472;52.170;20.884;2023-05-08T15:25:11;33.00;25.00
21275;DHT22;36472;52.170;20.884;2023-05-08T15:27:40;33.10;25.00
21275;DHT22;36472;52.170;20.884;2023-05-08T15:30:12;33.00;25.30
21275;DHT22;36472;52.170;20.884;2023-05-08T15:32:41;33.00;25.00
21275;DHT22;36472;52.170;20.884;2023-05-08T15:35:10;33.00;24.80
21275;DHT22;36472;52.170;20.884;2023-05-08T15:37:39;33.00;25.10
21275;DHT22;36472;52.170;20.884;2023-05-08T15:40:09;33.00;25.10
21275;DHT22;36472;52.170;20.884;2023-05-08T15:42:39;33.00;25.00
21275;DHT22;36472;52.170;20.884;2023-05-08T15:45:08;33.00;24.90
21275;DHT22;36472;52.170;20.884;2023-05-08T15:47:39;32.90;25.60